Flight Track Log - Related Links

Times and Time Zones

All times are in EDT time to prevent confusion due to time zone crossing. See the AAL2360 flight status page for this flight to view local times or setup timezone preferences in your user account.

Time Position Orientation Groundspeed Altitude Reporting Facility
EDT Latitude Longitude Course Direction KTS MPH feet Rate Location/Type
Mon 03:37:53 PM 32.8500 -97.0333 North 181 208 2,500  Level Dallas / Fort Worth TRACON
Mon 03:38:53 PM 32.8000 -97.0000 151° Southeast 235 270 4,200 2,158 Climbing Dallas / Fort Worth TRACON
Mon 03:39:47 PM 32.7667 -96.9333 121° Southeast 265 305 6,600 2,348 Climbing Dallas / Fort Worth TRACON
Mon 03:40:48 PM 32.7833 -96.8333 79° East 315 362 8,700 2,012 Climbing Dallas / Fort Worth TRACON
Mon 03:41:00 PM 33.0882 -96.8015 357° North  Level FlightAware Approximate
Mon 03:42:00 PM 33.2066 -96.8100 357° North  Level FlightAware Approximate
Mon 03:42:31 PM 32.9239 -96.8094 North 298 343 12,100  Level Fort Worth Center
Mon 03:43:00 PM 33.3251 -96.8167 North  Level FlightAware Approximate
Mon 03:43:31 PM 33.0178 -96.8114 359° North 343 395 14,500  Level Fort Worth Center
Mon 03:44:31 PM 33.1306 -96.8156 358° North 366 421 17,400 2,550 Climbing Fort Worth Center
Mon 03:45:31 PM 33.2286 -96.8200 358° North 366 421 19,600 2,050 Climbing Fort Worth Center
Mon 03:46:31 PM 33.3456 -96.8217 359° North 374 430 21,500 1,900 Climbing Fort Worth Center
Mon 03:47:31 PM 33.4436 -96.8208 360° North 384 442 23,400 1,700 Climbing Fort Worth Center
Mon 03:48:31 PM 33.5519 -96.7656 23° Northeast 400 460 24,900 1,450 Climbing Fort Worth Center
Mon 03:49:31 PM 33.6558 -96.6947 30° Northeast 413 475 26,300 1,050 Climbing Fort Worth Center
Mon 03:50:31 PM 33.7661 -96.6239 28° Northeast 429 494 27,000 350 Climbing Fort Worth Center
Mon 03:51:31 PM 33.8742 -96.5553 28° Northeast 437 503 27,000  Level Fort Worth Center
Mon 03:52:31 PM 33.9822 -96.4867 28° Northeast 432 497 27,000  Level Fort Worth Center
Mon 03:53:31 PM 34.0964 -96.4053 31° Northeast 432 497 27,000  Level Fort Worth Center
Mon 03:54:31 PM 34.1833 -96.3314 35° Northeast 415 478 27,000  Level Fort Worth Center
Mon 03:55:31 PM 34.2847 -96.2472 34° Northeast 434 499 27,000  Level Fort Worth Center
Mon 03:56:31 PM 34.3864 -96.1653 34° Northeast 439 505 27,000  Level Fort Worth Center
Mon 03:57:31 PM 34.4878 -96.0833 34° Northeast 439 505 27,000  Level Fort Worth Center
Mon 03:58:31 PM 34.5889 -95.9958 35° Northeast 439 505 27,000  Level Fort Worth Center
Mon 03:59:31 PM 34.6922 -95.9133 33° Northeast 439 505 27,000  Level Fort Worth Center
Mon 04:00:31 PM 34.7933 -95.8281 35° Northeast 434 499 27,000  Level Fort Worth Center
Mon 04:01:31 PM 34.9050 -95.7325 35° Northeast 434 499 27,000  Level Fort Worth Center
Mon 04:02:31 PM 35.0058 -95.6442 36° Northeast 439 505 27,000  Level Fort Worth Center
Mon 04:04:07 PM 35.1533 -95.4975 39° Northeast 442 509 27,000  Level Kansas City Center
Mon 04:04:22 PM 35.1733 -95.4806 35° Northeast 433 498 27,000  Level Memphis Center
Mon 04:05:22 PM 35.2708 -95.3900 37° Northeast 433 498 27,000  Level Memphis Center
Mon 04:06:22 PM 35.3683 -95.2992 37° Northeast 433 498 27,000  Level Memphis Center
Mon 04:07:22 PM 35.4639 -95.2053 39° Northeast 433 498 27,000  Level Memphis Center
Mon 04:08:22 PM 35.5614 -95.1117 38° Northeast 433 498 27,000  Level Memphis Center
Mon 04:09:22 PM 35.6586 -95.0175 38° Northeast 439 505 27,000  Level Memphis Center
Mon 04:10:22 PM 35.7603 -94.9233 37° Northeast 439 505 27,000 350 Level Memphis Center
Mon 04:11:22 PM 35.8575 -94.8289 38° Northeast 439 505 27,700 1,150 Climbing Memphis Center
Mon 04:12:22 PM 35.9528 -94.7314 40° Northeast 439 505 29,300 1,550 Climbing Memphis Center
Mon 04:13:22 PM 36.0497 -94.6392 38° Northeast 439 505 30,800 850 Climbing Memphis Center
Mon 04:14:22 PM 36.1467 -94.5467 38° Northeast 434 499 31,000 698 Climbing Memphis Center
Mon 04:16:31 PM 36.3533 -94.3414 39° Northeast 441 507 33,000 632 Climbing Kansas City Center
Mon 04:17:32 PM 36.4475 -94.2483 38° Northeast 437 503 33,000  Level Kansas City Center
Mon 04:18:32 PM 36.5422 -94.1550 38° Northeast 436 502 33,000  Level Kansas City Center
Mon 04:19:36 PM 36.6411 -94.0614 37° Northeast 443 510 33,000  Level Kansas City Center
Mon 04:20:37 PM 36.7606 -93.9514 36° Northeast 445 512 33,000  Level Kansas City Center
Mon 04:21:41 PM 36.8611 -93.8603 36° Northeast 447 514 33,000  Level Kansas City Center
Mon 04:22:41 PM 36.9622 -93.7644 37° Northeast 447 514 33,000  Level Kansas City Center
Mon 04:23:45 PM 37.0631 -93.6692 37° Northeast 452 520 33,000  Level Kansas City Center
Mon 04:24:45 PM 37.1644 -93.5753 36° Northeast 451 519 33,000  Level Kansas City Center
Mon 04:25:49 PM 37.2636 -93.4819 37° Northeast 446 513 33,000  Level Kansas City Center
Mon 04:26:49 PM 37.3658 -93.3892 36° Northeast 449 517 33,000  Level Kansas City Center
Mon 04:27:53 PM 37.4647 -93.2922 38° Northeast 449 517 33,000  Level Kansas City Center
Mon 04:28:53 PM 37.5856 -93.1778 37° Northeast 451 519 33,000  Level Kansas City Center
Mon 04:29:57 PM 37.6889 -93.0797 37° Northeast 459 528 33,000  Level Kansas City Center
Mon 04:30:58 PM 37.7911 -92.9803 38° Northeast 461 531 33,000  Level Kansas City Center
Mon 04:31:59 PM 37.8914 -92.8850 37° Northeast 452 520 33,000  Level Kansas City Center
Mon 04:33:02 PM 37.9917 -92.7875 37° Northeast 450 518 33,000  Level Kansas City Center
Mon 04:34:02 PM 38.0839 -92.6981 37° Northeast 451 519 33,000  Level Kansas City Center
Mon 04:35:06 PM 38.1956 -92.5919 37° Northeast 452 520 33,000  Level Kansas City Center
Mon 04:36:07 PM 38.2975 -92.4917 38° Northeast 456 525 33,000  Level Kansas City Center
Mon 04:37:10 PM 38.3989 -92.3922 38° Northeast 455 524 33,000  Level Kansas City Center
Mon 04:38:11 PM 38.5186 -92.2747 38° Northeast 450 518 33,000  Level Kansas City Center
Mon 04:39:12 PM 38.6186 -92.1756 38° Northeast 451 519 33,000  Level Kansas City Center
Mon 04:40:16 PM 38.7197 -92.0758 38° Northeast 455 524 33,000  Level Kansas City Center
Mon 04:41:17 PM 38.8197 -91.9761 38° Northeast 454 522 33,000  Level Kansas City Center
Mon 04:42:18 PM 38.9172 -91.8778 38° Northeast 448 516 33,000  Level Kansas City Center
Mon 04:43:22 PM 39.0156 -91.7803 38° Northeast 445 512 33,000  Level Kansas City Center
Mon 04:44:22 PM 39.1164 -91.6806 37° Northeast 440 506 33,000  Level Kansas City Center
Mon 04:45:26 PM 39.2142 -91.5828 38° Northeast 443 510 33,000  Level Kansas City Center
Mon 04:46:26 PM 39.3136 -91.4819 38° Northeast 449 517 33,000  Level Kansas City Center
Mon 04:47:30 PM 39.4122 -91.3819 38° Northeast 451 519 33,000  Level Kansas City Center
Mon 04:48:32 PM 39.5294 -91.2636 38° Northeast 448 516 33,000  Level Kansas City Center
Mon 04:49:33 PM 39.6272 -91.1642 38° Northeast 446 513 33,000  Level Kansas City Center
Mon 04:50:36 PM 39.7258 -91.0619 39° Northeast 449 517 33,000  Level Kansas City Center
Mon 04:51:38 PM 39.8350 -90.9525 38° Northeast 454 522 33,000  Level Kansas City Center
Mon 04:52:41 PM 39.9336 -90.8536 38° Northeast 449 517 33,000  Level Kansas City Center
Mon 04:53:42 PM 40.0319 -90.7544 38° Northeast 448 516 33,000  Level Kansas City Center
Mon 04:54:43 PM 40.1322 -90.6539 37° Northeast 450 518 33,000  Level Kansas City Center
Mon 04:55:47 PM 40.2311 -90.5517 38° Northeast 452 520 33,000  Level Kansas City Center
Mon 04:56:53 PM 40.3492 -90.4314 38° Northeast 449 517 33,000 -141 Level Chicago Center
Mon 04:57:55 PM 40.4478 -90.3303 38° Northeast 449 517 32,700 -581 Descending Chicago Center
Mon 04:58:57 PM 40.5453 -90.2306 38° Northeast 444 511 31,800 -1,161 Descending Chicago Center
Mon 04:59:59 PM 40.6594 -90.1083 39° Northeast 442 509 30,300 -1,403 Descending Chicago Center
Mon 05:01:01 PM 40.7614 -90.0083 37° Northeast 452 520 28,900 -1,355 Descending Chicago Center
Mon 05:02:03 PM 40.8575 -89.9069 39° Northeast 445 512 27,500 -1,355 Descending Chicago Center
Mon 05:03:05 PM 40.9531 -89.8056 39° Northeast 441 507 26,100 -1,403 Descending Chicago Center
Mon 05:04:07 PM 41.0558 -89.6981 38° Northeast 434 499 24,600 -1,065 Descending Chicago Center
Mon 05:05:09 PM 41.1494 -89.5994 38° Northeast 430 495 23,900 -919 Descending Chicago Center
Mon 05:06:11 PM 41.2125 -89.4644 58° Northeast 430 495 22,700 -1,839 Descending Chicago Center
Mon 05:07:13 PM 41.2678 -89.3261 62° Northeast 425 489 20,100 -2,468 Descending Chicago Center
Mon 05:08:15 PM 41.3269 -89.1778 62° Northeast 421 484 17,600 -2,274 Descending Chicago Center
Mon 05:09:17 PM 41.3781 -89.0456 63° Northeast 408 470 15,400 -2,097 Descending Chicago Center
Mon 05:11:21 PM 41.4875 -88.7736 62° Northeast 373 429 11,100 -1,419 Descending Chicago Center
Mon 05:12:23 PM 41.5322 -88.6567 63° Northeast 359 413 11,000 -48 Descending Chicago Center
Mon 05:13:25 PM 41.5731 -88.5522 62° Northeast 321 369 11,000 -194 Level Chicago Center
Mon 05:14:27 PM 41.6156 -88.4536 60° Northeast 308 354 10,600 -677 Descending Chicago Center
Mon 05:15:29 PM 41.6683 -88.3644 52° Northeast 306 352 9,600 -968 Descending Chicago Center
Mon 05:16:31 PM 41.7481 -88.3269 19° North 311 358 8,600 -1,210 Descending Chicago Center
Mon 05:17:33 PM 41.8461 -88.3011 11° North 300 345 7,100 -1,742 Descending Chicago Center
Mon 05:18:35 PM 41.9228 -88.2861 North 282 325 5,000 -1,500 Descending Chicago Center
Mon 05:19:37 PM 41.9644 -88.2272 46° Northeast 257 296 4,000 -528 Descending Chicago Center
Mon 05:20:40 PM 41.9686 -88.1483 86° East 230 265 3,900 -442 Descending Chicago Center
Mon 05:21:12 PM 41.9667 -88.1000 93° East 183 211 3,300 -1,125 Descending Chicago TRACON

Login

Don't have an account? Register now (free) for customized features, flight alerts, and more!